Time;durP1;ratioP1;P1;durP2;ratioP2;P2;SDS_P1;SDS_P2;PMS_P1;PMS_P2;Temp;Humidity;BMP_temperature;BMP_pressure;BME280_temperature;BME280_humidity;BME280_pressure;Samples;Min_cycle;Max_cycle;Signal;HPM_P1;HPM_P2
2022/11/28 00:03:13;;;;;;;3.40;1.80;;;;;8.20;100404.00;;;;10452026;28;20205;-78
2022/11/28 00:08:15;;;;;;;2.13;1.90;;;;;8.20;100401.00;;;;10421089;28;20304;-78
2022/11/28 00:13:17;;;;;;;4.47;2.43;;;;;8.10;100415.00;;;;10438481;28;20189;-77
2022/11/28 00:18:19;;;;;;;2.70;1.90;;;;;8.10;100405.00;;;;10431153;28;20217;-77
2022/11/28 00:23:21;;;;;;;5.07;2.10;;;;;8.10;100398.00;;;;10441783;28;20507;-77
2022/11/28 00:28:23;;;;;;;3.87;2.10;;;;;8.00;100406.00;;;;10435064;28;20246;-77
2022/11/28 00:33:25;;;;;;;2.80;2.07;;;;;8.00;100415.00;;;;10472251;28;20223;-78
2022/11/28 00:38:28;;;;;;;3.43;1.93;;;;;7.90;100421.00;;;;10461257;28;20186;-77
2022/11/28 00:43:30;;;;;;;4.30;2.17;;;;;7.80;100425.00;;;;10411262;28;20194;-77
2022/11/28 00:48:33;;;;;;;4.77;1.73;;;;;7.80;100424.00;;;;10417378;28;20340;-78
2022/11/28 00:53:36;;;;;;;3.70;1.70;;;;;7.70;100414.00;;;;10426597;28;20235;-77
2022/11/28 00:58:39;;;;;;;2.87;1.87;;;;;7.60;100412.00;;;;10426219;28;20189;-78
2022/11/28 01:03:42;;;;;;;2.30;1.93;;;;;7.60;100403.00;;;;10453666;28;20186;-79
2022/11/28 01:08:43;;;;;;;4.63;2.30;;;;;7.50;100397.00;;;;10429612;28;20226;-78
2022/11/28 01:13:45;;;;;;;2.93;1.70;;;;;7.50;100395.00;;;;10459739;28;20202;-78
2022/11/28 01:18:48;;;;;;;3.40;2.00;;;;;7.50;100391.00;;;;10446564;28;20195;-79
2022/11/28 01:23:50;;;;;;;2.73;2.10;;;;;7.50;100390.00;;;;10429619;28;20198;-79
2022/11/28 01:28:53;;;;;;;2.83;2.07;;;;;7.50;100384.00;;;;10446348;28;20213;-79
2022/11/28 01:33:55;;;;;;;4.30;2.20;;;;;7.50;100389.00;;;;10409666;28;20202;-78
2022/11/28 01:38:57;;;;;;;3.73;2.10;;;;;7.50;100386.00;;;;10404692;28;20185;-79
2022/11/28 01:44:07;;;;;;;2.70;1.90;;;;;7.50;100387.00;;;;10441616;28;20189;-79
2022/11/28 01:49:34;;;;;;;3.43;2.30;;;;;7.50;100388.00;;;;10436076;28;20762;-78
2022/11/28 01:54:37;;;;;;;3.20;2.33;;;;;7.50;100381.00;;;;10452739;28;20194;-79
2022/11/28 01:59:45;;;;;;;4.77;2.97;;;;;7.50;100374.00;;;;10414291;28;20208;-79
2022/11/28 02:04:49;;;;;;;3.80;2.40;;;;;7.50;100371.00;;;;10464129;28;20205;-78
2022/11/28 02:09:51;;;;;;;3.30;2.37;;;;;7.50;100364.00;;;;10440838;28;20220;-78
2022/11/28 02:15:07;;;;;;;5.03;2.47;;;;;7.50;100368.00;;;;10441116;28;20212;-79
2022/11/28 02:20:27;;;;;;;4.27;2.77;;;;;7.50;100359.00;;;;10430396;28;20189;-78
2022/11/28 02:25:51;;;;;;;3.87;2.80;;;;;7.50;100361.00;;;;10428517;28;20576;-78
2022/11/28 02:31:11;;;;;;;3.63;2.23;;;;;7.50;100350.00;;;;10467783;28;20281;-78
2022/11/28 02:36:37;;;;;;;2.23;1.93;;;;;7.60;100359.00;;;;10414793;28;20661;-78
2022/11/28 02:42:09;;;;;;;4.43;2.33;;;;;7.60;100354.00;;;;10422603;28;20223;-79
2022/11/28 02:47:26;;;;;;;5.07;2.47;;;;;7.60;100356.00;;;;10423428;28;20229;-78
2022/11/28 02:52:33;;;;;;;3.63;2.00;;;;;7.60;100353.00;;;;10427868;28;20197;-78
2022/11/28 02:57:37;;;;;;;7.30;3.07;;;;;7.60;100352.00;;;;10450801;28;20197;-78
2022/11/28 03:02:41;;;;;;;5.30;3.03;;;;;7.60;100352.00;;;;10427908;28;20220;-78
2022/11/28 03:07:58;;;;;;;4.87;2.50;;;;;7.60;100339.00;;;;10464733;28;20225;-78
2022/11/28 03:13:15;;;;;;;3.53;2.27;;;;;7.60;100332.00;;;;10444999;28;20205;-78
2022/11/28 03:18:58;;;;;;;2.93;2.13;;;;;7.70;100345.00;;;;10435070;28;20186;-78
2022/11/28 03:24:04;;;;;;;2.60;2.20;;;;;7.70;100349.00;;;;10403311;28;20197;-78
2022/11/28 03:29:14;;;;;;;3.00;2.13;;;;;7.70;100343.00;;;;10445562;28;20221;-78
2022/11/28 03:34:19;;;;;;;3.20;2.30;;;;;7.70;100351.00;;;;10455242;28;20182;-79
2022/11/28 03:39:26;;;;;;;2.73;2.40;;;;;7.70;100339.00;;;;10432174;28;20563;-78
2022/11/28 03:44:57;;;;;;;5.10;2.40;;;;;7.70;100337.00;;;;10451157;28;20194;-78
2022/11/28 03:50:05;;;;;;;4.23;2.23;;;;;7.70;100336.00;;;;10477350;28;20205;-78
2022/11/28 03:55:17;;;;;;;4.07;2.33;;;;;7.70;100337.00;;;;10444869;28;20713;-78
2022/11/28 04:00:19;;;;;;;4.63;2.57;;;;;7.70;100343.00;;;;10428496;28;20653;-78
2022/11/28 04:05:28;;;;;;;3.80;2.80;;;;;7.70;100353.00;;;;10459893;28;20825;-79
2022/11/28 04:10:40;;;;;;;2.93;2.40;;;;;7.70;100344.00;;;;10404399;28;20279;-78
2022/11/28 04:15:59;;;;;;;2.33;2.10;;;;;7.70;100354.00;;;;10443846;28;20206;-78
2022/11/28 04:21:24;;;;;;;2.87;2.00;;;;;7.70;100362.00;;;;10401285;28;20214;-78
2022/11/28 04:26:41;;;;;;;2.60;2.00;;;;;7.70;100365.00;;;;10427260;28;20248;-78
2022/11/28 04:31:45;;;;;;;3.27;2.03;;;;;7.70;100356.00;;;;10434485;28;20205;-78
2022/11/28 04:36:48;;;;;;;3.30;2.30;;;;;7.70;100361.00;;;;10443178;28;20196;-78
2022/11/28 04:41:53;;;;;;;2.70;2.30;;;;;7.70;100363.00;;;;10427145;28;20193;-78
2022/11/28 04:46:56;;;;;;;2.80;2.10;;;;;7.80;100359.00;;;;10441571;28;20676;-78
2022/11/28 04:52:22;;;;;;;4.47;3.30;;;;;7.80;100365.00;;;;10434972;28;20216;-78
2022/11/28 04:57:23;;;;;;;5.50;3.33;;;;;7.80;100359.00;;;;10448829;28;20664;-77
2022/11/28 05:02:27;;;;;;;8.37;4.37;;;;;7.80;100367.00;;;;10426284;28;20610;-78
2022/11/28 05:07:29;;;;;;;6.60;5.00;;;;;7.80;100355.00;;;;10415325;28;20221;-78
2022/11/28 05:12:31;;;;;;;9.50;6.10;;;;;7.80;100352.00;;;;10442109;28;20285;-78
2022/11/28 05:17:33;;;;;;;9.33;5.50;;;;;7.80;100353.00;;;;10426000;28;20246;-78
2022/11/28 05:22:42;;;;;;;8.47;5.40;;;;;7.90;100365.00;;;;10429019;28;20196;-78
2022/11/28 05:27:44;;;;;;;7.03;5.77;;;;;7.90;100348.00;;;;10437380;28;20232;-78
2022/11/28 05:32:46;;;;;;;8.53;4.97;;;;;7.90;100369.00;;;;10456757;28;20185;-78
2022/11/28 05:37:48;;;;;;;9.17;4.97;;;;;7.90;100360.00;;;;10474896;28;20642;-78
2022/11/28 05:42:50;;;;;;;8.43;6.50;;;;;7.90;100366.00;;;;10441271;28;20196;-78
2022/11/28 05:47:52;;;;;;;8.30;5.73;;;;;7.90;100358.00;;;;10439312;28;20198;-78
2022/11/28 05:52:53;;;;;;;11.23;5.87;;;;;7.90;100363.00;;;;10448087;28;20198;-78
2022/11/28 05:57:55;;;;;;;10.53;6.20;;;;;7.90;100367.00;;;;10410862;28;20248;-78
2022/11/28 06:02:59;;;;;;;11.53;7.03;;;;;7.90;100368.00;;;;10456195;28;20203;-78
2022/11/28 06:08:02;;;;;;;9.50;6.60;;;;;7.90;100366.00;;;;10429354;28;20210;-78
2022/11/28 06:13:04;;;;;;;9.30;6.77;;;;;8.00;100374.00;;;;10436846;28;20240;-78
2022/11/28 06:18:07;;;;;;;9.87;7.50;;;;;8.00;100386.00;;;;10418368;28;20281;-78
2022/11/28 06:23:09;;;;;;;10.07;6.70;;;;;8.00;100380.00;;;;10431288;28;20296;-78
2022/11/28 06:28:11;;;;;;;11.20;7.87;;;;;8.00;100386.00;;;;10461700;28;20221;-78
2022/11/28 06:33:12;;;;;;;11.47;8.50;;;;;8.10;100383.00;;;;10443478;28;20208;-78
2022/11/28 06:38:14;;;;;;;11.67;8.27;;;;;8.10;100390.00;;;;10441241;28;20194;-78
2022/11/28 06:43:16;;;;;;;9.93;7.87;;;;;8.10;100399.00;;;;10411131;28;20643;-78
2022/11/28 06:48:18;;;;;;;11.57;7.67;;;;;8.20;100400.00;;;;10438921;28;20202;-79
2022/11/28 06:53:20;;;;;;;12.63;8.03;;;;;8.20;100401.00;;;;10431633;28;20220;-78
2022/11/28 06:58:22;;;;;;;10.93;7.50;;;;;8.20;100414.00;;;;10476687;28;20186;-79
2022/11/28 07:03:24;;;;;;;10.03;6.90;;;;;8.20;100410.00;;;;10458393;28;20208;-78
2022/11/28 07:08:26;;;;;;;11.73;8.00;;;;;8.20;100428.00;;;;10429770;28;20696;-78
2022/11/28 07:13:28;;;;;;;8.87;6.73;;;;;8.20;100418.00;;;;10426282;28;20205;-78
2022/11/28 07:18:31;;;;;;;8.27;5.80;;;;;8.20;100431.00;;;;10440168;28;20193;-78
2022/11/28 07:23:33;;;;;;;5.93;5.33;;;;;8.20;100421.00;;;;10417415;28;20281;-79
2022/11/28 07:28:34;;;;;;;6.47;4.77;;;;;8.20;100426.00;;;;10457619;28;20233;-78
2022/11/28 07:33:38;;;;;;;5.33;4.43;;;;;8.20;100433.00;;;;10398570;28;20223;-80
2022/11/28 07:38:40;;;;;;;5.63;4.70;;;;;8.30;100432.00;;;;10444035;28;20190;-79
2022/11/28 07:43:45;;;;;;;5.97;4.63;;;;;8.30;100433.00;;;;10445917;28;20196;-80
2022/11/28 07:48:47;;;;;;;7.37;5.10;;;;;8.40;100434.00;;;;10418877;28;20206;-79
2022/11/28 07:53:50;;;;;;;7.90;5.97;;;;;8.40;100435.00;;;;10420707;28;20194;-80
2022/11/28 07:58:52;;;;;;;12.57;9.57;;;;;8.50;100436.00;;;;10433800;28;20189;-79
2022/11/28 08:03:54;;;;;;;8.10;6.17;;;;;8.50;100460.00;;;;10432978;28;20198;-79
2022/11/28 08:08:59;;;;;;;10.27;6.30;;;;;8.60;100457.00;;;;10437902;28;20215;-79
2022/11/28 08:14:02;;;;;;;10.07;7.10;;;;;8.60;100457.00;;;;10448455;28;20277;-79
2022/11/28 08:19:04;;;;;;;16.10;8.67;;;;;8.70;100459.00;;;;10416654;28;20200;-80
2022/11/28 08:24:06;;;;;;;14.33;9.63;;;;;8.70;100452.00;;;;10417803;28;20197;-78
2022/11/28 08:29:09;;;;;;;22.40;9.87;;;;;8.70;100448.00;;;;10408838;28;20217;-78
2022/11/28 08:34:11;;;;;;;17.50;9.80;;;;;8.80;100458.00;;;;10406707;28;20243;-78
2022/11/28 08:39:13;;;;;;;17.97;10.03;;;;;8.90;100460.00;;;;10436498;28;20186;-79
2022/11/28 08:44:30;;;;;;;16.47;9.87;;;;;8.90;100469.00;;;;10424359;28;20199;-79
2022/11/28 08:49:35;;;;;;;19.07;9.77;;;;;9.10;100480.00;;;;10426839;28;20228;-79
2022/11/28 08:54:37;;;;;;;18.00;9.07;;;;;9.20;100467.00;;;;10422728;28;20579;-80
2022/11/28 08:59:39;;;;;;;13.03;8.67;;;;;9.20;100461.00;;;;10440731;28;20239;-79
2022/11/28 09:04:42;;;;;;;14.77;9.10;;;;;9.30;100464.00;;;;10439796;28;20196;-79
2022/11/28 09:09:44;;;;;;;24.47;10.30;;;;;9.40;100455.00;;;;10437598;28;20225;-78
2022/11/28 09:14:46;;;;;;;18.37;9.33;;;;;9.40;100449.00;;;;10424676;28;20239;-80
2022/11/28 09:19:48;;;;;;;14.20;10.00;;;;;9.50;100460.00;;;;10407482;28;20608;-79
2022/11/28 09:24:50;;;;;;;17.67;10.33;;;;;9.60;100468.00;;;;10447343;28;20243;-78
2022/11/28 09:29:52;;;;;;;20.70;11.00;;;;;9.70;100469.00;;;;10430240;28;20223;-79
2022/11/28 09:34:55;;;;;;;28.53;9.83;;;;;9.70;100486.00;;;;10438012;28;20560;-79
2022/11/28 09:39:57;;;;;;;16.53;8.90;;;;;9.80;100488.00;;;;10428760;28;20190;-79
2022/11/28 09:45:17;;;;;;;20.70;9.97;;;;;10.00;100483.00;;;;10428834;28;20193;-79
2022/11/28 09:50:25;;;;;;;16.03;8.60;;;;;10.10;100487.00;;;;10455626;28;20692;-80
2022/11/28 09:55:34;;;;;;;15.73;8.20;;;;;10.20;100495.00;;;;10419393;28;20190;-78
2022/11/28 10:00:46;;;;;;;15.07;8.60;;;;;10.20;100499.00;;;;10447698;28;20185;-77
2022/11/28 10:05:57;;;;;;;19.87;9.23;;;;;10.50;100492.00;;;;10442629;28;20538;-77
2022/11/28 10:11:25;;;;;;;16.90;9.97;;;;;10.90;100496.00;;;;10464302;28;20235;-77
2022/11/28 10:16:42;;;;;;;17.70;9.40;;;;;11.10;100484.00;;;;10431959;28;20197;-77
2022/11/28 10:21:49;;;;;;;14.50;8.53;;;;;11.10;100490.00;;;;10437235;28;20193;-76
2022/11/28 10:27:00;;;;;;;19.03;9.53;;;;;10.90;100494.00;;;;10442982;28;20237;-76
2022/11/28 10:32:03;;;;;;;20.30;8.87;;;;;10.80;100494.00;;;;10439524;28;20187;-76
2022/11/28 10:37:12;;;;;;;18.80;9.57;;;;;11.00;100495.00;;;;10442657;28;20202;-77
2022/11/28 10:42:23;;;;;;;19.73;9.40;;;;;11.20;100497.00;;;;10488082;28;20197;-77
2022/11/28 10:47:49;;;;;;;19.33;9.20;;;;;11.30;100489.00;;;;10430900;28;20209;-77
2022/11/28 10:53:17;;;;;;;12.60;8.40;;;;;11.30;100487.00;;;;10454414;28;20194;-77
2022/11/28 10:58:36;;;;;;;23.10;9.57;;;;;11.30;100492.00;;;;10450036;28;20201;-77
2022/11/28 11:03:39;;;;;;;16.23;9.10;;;;;11.30;100502.00;;;;10407834;28;20202;-78
2022/11/28 11:08:41;;;;;;;15.57;8.47;;;;;11.40;100506.00;;;;10436997;28;20252;-77
2022/11/28 11:14:06;;;;;;;20.67;9.50;;;;;11.40;100500.00;;;;10426810;28;20256;-77
2022/11/28 11:19:31;;;;;;;16.47;9.57;;;;;11.50;100499.00;;;;10415667;28;20202;-77
2022/11/28 11:24:33;;;;;;;19.77;9.83;;;;;11.50;100511.00;;;;10417372;28;20185;-77
2022/11/28 11:29:36;;;;;;;18.73;9.80;;;;;11.40;100521.00;;;;10451379;28;20300;-77
2022/11/28 11:34:43;;;;;;;17.30;8.43;;;;;11.20;100522.00;;;;10441046;28;20226;-77
2022/11/28 11:39:50;;;;;;;19.00;8.93;;;;;11.30;100518.00;;;;10451201;28;20209;-77
2022/11/28 11:44:53;;;;;;;22.23;10.17;;;;;11.40;100518.00;;;;10438936;28;20211;-78
2022/11/28 11:50:03;;;;;;;19.30;10.47;;;;;11.70;100506.00;;;;10439698;28;20699;-77
2022/11/28 11:55:15;;;;;;;23.07;10.77;;;;;11.70;100500.00;;;;10430470;28;20227;-77
2022/11/28 12:00:20;;;;;;;24.43;11.20;;;;;11.70;100493.00;;;;10429819;28;20201;-77
2022/11/28 12:05:27;;;;;;;26.37;9.90;;;;;11.90;100506.00;;;;10433945;28;20195;-77
2022/11/28 12:10:34;;;;;;;32.20;10.40;;;;;11.90;100515.00;;;;10415027;28;20305;-77
2022/11/28 12:15:49;;;;;;;33.40;9.70;;;;;11.60;100520.00;;;;10462717;28;20197;-77
2022/11/28 12:21:12;;;;;;;20.67;9.27;;;;;11.30;100521.00;;;;10459684;28;20534;-77
2022/11/28 12:26:32;;;;;;;24.20;8.97;;;;;11.10;100526.00;;;;10473491;28;20217;-77
2022/11/28 12:31:50;;;;;;;19.70;8.80;;;;;11.00;100525.00;;;;10435008;28;20221;-77
2022/11/28 12:37:20;;;;;;;18.20;9.17;;;;;11.00;100531.00;;;;10447607;28;20205;-77
2022/11/28 12:42:31;;;;;;;23.63;9.93;;;;;11.00;100524.00;;;;10420891;28;20662;-77
2022/11/28 12:47:51;;;;;;;25.87;10.80;;;;;11.00;100527.00;;;;10485272;28;20244;-77
2022/11/28 12:53:29;;;;;;;18.40;9.43;;;;;11.00;100530.00;;;;10442462;28;20232;-77
2022/11/28 12:58:50;;;;;;;20.27;9.83;;;;;11.10;100528.00;;;;10420215;28;20208;-77
2022/11/28 13:04:03;;;;;;;20.17;9.20;;;;;11.30;100522.00;;;;10435604;28;20186;-77
2022/11/28 13:09:27;;;;;;;24.00;10.30;;;;;11.20;100512.00;;;;10450040;28;20218;-77
2022/11/28 13:14:52;;;;;;;25.87;11.03;;;;;11.00;100515.00;;;;10446106;28;20202;-77
2022/11/28 13:20:22;;;;;;;19.10;9.60;;;;;10.90;100526.00;;;;10425611;28;20197;-77
2022/11/28 13:25:49;;;;;;;21.97;11.47;;;;;11.10;100518.00;;;;10443491;28;20205;-77
2022/11/28 13:31:01;;;;;;;25.20;11.00;;;;;11.10;100523.00;;;;10431506;28;20244;-77
2022/11/28 13:36:07;;;;;;;20.97;9.93;;;;;11.00;100530.00;;;;10436928;28;20189;-77
2022/11/28 13:41:23;;;;;;;20.23;10.30;;;;;10.90;100533.00;;;;10430712;28;20244;-77
2022/11/28 13:46:45;;;;;;;21.47;9.83;;;;;11.00;100521.00;;;;10421763;28;20178;-77
2022/11/28 13:51:47;;;;;;;16.90;8.20;;;;;11.20;100526.00;;;;10449058;28;20222;-77
2022/11/28 13:57:11;;;;;;;18.23;8.77;;;;;11.10;100518.00;;;;10430935;28;20262;-77
2022/11/28 14:02:25;;;;;;;18.80;8.50;;;;;11.00;100527.00;;;;10435402;28;20198;-77
2022/11/28 14:07:32;;;;;;;16.37;7.73;;;;;11.00;100529.00;;;;10419580;28;20283;-77
2022/11/28 14:12:49;;;;;;;16.77;8.20;;;;;10.90;100529.00;;;;10452467;28;20305;-77
2022/11/28 14:18:20;;;;;;;16.07;8.33;;;;;10.80;100529.00;;;;10429634;28;20209;-77
2022/11/28 14:23:59;;;;;;;16.40;8.57;;;;;10.70;100539.00;;;;10451515;28;20198;-76
2022/11/28 14:29:04;;;;;;;27.00;8.33;;;;;10.60;100550.00;;;;10431170;28;20676;-77
2022/11/28 14:34:41;;;;;;;18.53;9.00;;;;;10.60;100555.00;;;;10431699;28;20243;-78
2022/11/28 14:39:44;;;;;;;15.83;8.57;;;;;10.50;100565.00;;;;10420505;28;20830;-77
2022/11/28 14:45:00;;;;;;;20.13;8.27;;;;;10.50;100565.00;;;;10448811;28;20195;-77
2022/11/28 14:50:09;;;;;;;23.47;7.37;;;;;10.40;100572.00;;;;10428719;28;20213;-77
2022/11/28 14:55:11;;;;;;;18.30;8.07;;;;;10.30;100571.00;;;;10441900;28;20193;-77
2022/11/28 15:00:17;;;;;;;18.70;9.33;;;;;10.20;100563.00;;;;10434692;28;20182;-77
2022/11/28 15:05:21;;;;;;;18.53;8.40;;;;;10.10;100568.00;;;;10427535;28;20185;-78
2022/11/28 15:10:48;;;;;;;20.87;8.70;;;;;10.00;100571.00;;;;10445027;28;20218;-77
2022/11/28 15:15:52;;;;;;;27.13;10.07;;;;;9.90;100568.00;;;;10466008;28;20198;-78
2022/11/28 15:21:00;;;;;;;22.03;8.83;;;;;9.90;100573.00;;;;10463414;28;20194;-77
2022/11/28 15:26:05;;;;;;;23.40;8.97;;;;;9.80;100575.00;;;;10452074;28;20208;-77
2022/11/28 15:31:20;;;;;;;22.23;9.70;;;;;9.70;100572.00;;;;10429514;28;20622;-77
2022/11/28 15:36:28;;;;;;;19.27;7.87;;;;;9.70;100581.00;;;;10437122;28;20256;-77
2022/11/28 15:41:30;;;;;;;20.10;8.40;;;;;9.60;100588.00;;;;10452623;28;20194;-77
2022/11/28 15:46:33;;;;;;;17.97;9.57;;;;;9.50;100600.00;;;;10461172;28;20577;-77
2022/11/28 15:51:36;;;;;;;21.40;8.73;;;;;9.50;100602.00;;;;10425732;28;20322;-77
2022/11/28 15:56:37;;;;;;;21.30;9.43;;;;;9.50;100605.00;;;;10452302;28;20625;-78
2022/11/28 16:01:40;;;;;;;23.00;8.80;;;;;9.40;100598.00;;;;10440512;28;20193;-77
2022/11/28 16:06:48;;;;;;;16.07;8.63;;;;;9.30;100609.00;;;;10450337;28;20585;-78
2022/11/28 16:11:52;;;;;;;17.57;8.10;;;;;9.20;100616.00;;;;10448880;28;20220;-77
2022/11/28 16:16:55;;;;;;;15.33;7.80;;;;;9.10;100618.00;;;;10410130;28;20749;-77
2022/11/28 16:22:01;;;;;;;21.30;7.97;;;;;9.00;100627.00;;;;10444098;28;20190;-77
2022/11/28 16:27:04;;;;;;;19.60;8.80;;;;;8.90;100634.00;;;;10424364;28;20218;-77
2022/11/28 16:32:28;;;;;;;19.57;7.43;;;;;8.90;100637.00;;;;10452779;28;21916;-77
2022/11/28 16:37:31;;;;;;;23.20;8.77;;;;;8.80;100640.00;;;;10424567;28;20200;-77
2022/11/28 16:42:34;;;;;;;26.30;10.07;;;;;8.80;100631.00;;;;10439537;28;20276;-76
2022/11/28 16:47:37;;;;;;;27.23;9.53;;;;;8.70;100638.00;;;;10426710;28;20710;-77
2022/11/28 16:52:49;;;;;;;19.87;11.00;;;;;8.60;100650.00;;;;10429360;28;20225;-77
2022/11/28 16:58:15;;;;;;;25.90;11.70;;;;;8.60;100652.00;;;;10421778;28;20259;-77
2022/11/28 17:03:41;;;;;;;24.90;11.43;;;;;8.60;100656.00;;;;10419717;28;20224;-77
2022/11/28 17:08:44;;;;;;;21.73;10.83;;;;;8.70;100662.00;;;;10415879;28;20206;-77
2022/11/28 17:13:46;;;;;;;24.97;12.03;;;;;8.70;100670.00;;;;10405089;28;20202;-77
2022/11/28 17:18:48;;;;;;;31.80;12.40;;;;;8.80;100676.00;;;;10468792;28;20194;-77
2022/11/28 17:23:50;;;;;;;24.83;12.43;;;;;8.80;100660.00;;;;10433871;28;20220;-77
2022/11/28 17:28:52;;;;;;;24.77;11.30;;;;;8.70;100666.00;;;;10469794;28;20217;-77
2022/11/28 17:33:54;;;;;;;28.17;12.47;;;;;8.60;100673.00;;;;10450837;28;20217;-77
2022/11/28 17:38:55;;;;;;;28.90;12.43;;;;;8.60;100672.00;;;;10415299;28;20229;-77
2022/11/28 17:44:05;;;;;;;32.37;14.27;;;;;8.50;100674.00;;;;10419726;28;20194;-77
2022/11/28 17:49:07;;;;;;;32.77;14.77;;;;;8.40;100672.00;;;;10444399;28;20198;-77
2022/11/28 17:54:11;;;;;;;35.13;17.70;;;;;8.30;100675.00;;;;10456778;28;20302;-77
2022/11/28 17:59:15;;;;;;;40.63;20.63;;;;;8.20;100674.00;;;;10450210;28;20209;-77
2022/11/28 18:04:17;;;;;;;37.67;17.40;;;;;8.10;100675.00;;;;10431303;28;20209;-77
2022/11/28 18:09:19;;;;;;;29.10;13.57;;;;;8.10;100687.00;;;;10432671;28;20210;-77
2022/11/28 18:14:21;;;;;;;28.00;10.83;;;;;8.20;100688.00;;;;10432981;28;20201;-77
2022/11/28 18:19:23;;;;;;;29.17;11.20;;;;;8.20;100691.00;;;;10451303;28;20190;-77
2022/11/28 18:24:25;;;;;;;29.07;12.33;;;;;8.20;100690.00;;;;10414101;28;20182;-77
2022/11/28 18:29:27;;;;;;;21.30;12.50;;;;;8.20;100701.00;;;;10451337;28;20277;-77
2022/11/28 18:34:29;;;;;;;23.63;11.23;;;;;8.30;100704.00;;;;10465975;28;20204;-77
2022/11/28 18:39:32;;;;;;;29.10;12.13;;;;;8.20;100699.00;;;;10447234;28;20536;-77
2022/11/28 18:44:33;;;;;;;23.03;10.40;;;;;8.10;100706.00;;;;10454261;28;20513;-77
2022/11/28 18:49:36;;;;;;;24.67;10.93;;;;;8.00;100713.00;;;;10481473;28;20299;-77
2022/11/28 18:54:37;;;;;;;25.90;11.47;;;;;8.00;100713.00;;;;10440985;28;20259;-77
2022/11/28 18:59:39;;;;;;;30.67;11.70;;;;;7.90;100719.00;;;;10452829;28;20213;-77
2022/11/28 19:04:42;;;;;;;33.47;11.93;;;;;7.80;100716.00;;;;10447562;28;20194;-77
2022/11/28 19:09:45;;;;;;;23.63;10.57;;;;;7.80;100723.00;;;;10442884;28;20303;-76
2022/11/28 19:14:47;;;;;;;23.80;11.37;;;;;7.70;100728.00;;;;10446382;28;20221;-77
2022/11/28 19:19:49;;;;;;;25.23;10.93;;;;;7.60;100729.00;;;;10449664;28;20216;-77
2022/11/28 19:24:52;;;;;;;25.20;12.53;;;;;7.60;100732.00;;;;10461496;28;20286;-77
2022/11/28 19:29:53;;;;;;;24.63;12.23;;;;;7.60;100719.00;;;;10451144;28;20252;-77
2022/11/28 19:34:56;;;;;;;24.30;12.43;;;;;7.60;100727.00;;;;10435728;28;20205;-77
2022/11/28 19:39:58;;;;;;;37.23;13.73;;;;;7.50;100730.00;;;;10427370;28;20197;-77
2022/11/28 19:45:04;;;;;;;26.43;13.23;;;;;7.40;100725.00;;;;10421593;28;20224;-77
2022/11/28 19:50:08;;;;;;;31.63;13.87;;;;;7.30;100735.00;;;;10438335;28;20291;-77
2022/11/28 19:55:10;;;;;;;31.13;14.73;;;;;7.30;100738.00;;;;10434600;28;20260;-77
2022/11/28 20:00:13;;;;;;;33.60;14.57;;;;;7.30;100739.00;;;;10452409;28;20259;-77
2022/11/28 20:05:15;;;;;;;30.80;13.90;;;;;7.30;100738.00;;;;10440388;28;20194;-77
2022/11/28 21:04:05;;;;;;;47.97;23.27;;;;;7.00;100793.00;;;;9856966;30;20755;-75
2022/11/28 21:09:07;;;;;;;35.50;18.63;;;;;7.10;100787.00;;;;9845166;30;20223;-75
2022/11/28 21:14:10;;;;;;;38.43;20.53;;;;;7.10;100789.00;;;;9850076;30;20196;-76
2022/11/28 21:19:12;;;;;;;31.03;19.73;;;;;7.10;100783.00;;;;9824162;30;20243;-76
2022/11/28 21:24:14;;;;;;;31.40;16.07;;;;;7.10;100784.00;;;;9849164;30;20207;-76
2022/11/28 21:29:16;;;;;;;26.17;14.60;;;;;7.20;100788.00;;;;9845626;30;20212;-76
2022/11/28 21:34:18;;;;;;;23.90;15.60;;;;;7.10;100791.00;;;;9819980;30;20228;-76
2022/11/28 21:39:20;;;;;;;35.83;18.50;;;;;7.10;100791.00;;;;9854259;30;20200;-75
2022/11/28 21:44:22;;;;;;;28.07;16.80;;;;;7.00;100788.00;;;;9823334;30;20270;-76
2022/11/28 21:49:24;;;;;;;38.80;19.17;;;;;6.90;100797.00;;;;9824969;30;20216;-75
2022/11/28 21:54:27;;;;;;;29.37;16.57;;;;;6.80;100801.00;;;;9859354;30;20810;-75
2022/11/28 21:59:30;;;;;;;24.67;14.77;;;;;6.70;100802.00;;;;9854941;30;20259;-75
2022/11/28 22:04:32;;;;;;;25.77;13.10;;;;;6.70;100804.00;;;;9868957;30;20200;-75
2022/11/28 22:09:34;;;;;;;20.77;13.70;;;;;6.70;100803.00;;;;9871646;30;20222;-75
2022/11/28 22:14:36;;;;;;;23.70;14.37;;;;;6.60;100812.00;;;;9873624;30;20234;-75
2022/11/28 22:19:38;;;;;;;28.37;15.10;;;;;6.60;100801.00;;;;9852622;30;20557;-75
2022/11/28 22:24:40;;;;;;;28.00;14.10;;;;;6.50;100804.00;;;;9857528;30;20257;-75
2022/11/28 22:29:43;;;;;;;26.73;14.13;;;;;6.50;100799.00;;;;9857059;30;20246;-75
2022/11/28 22:34:46;;;;;;;32.73;13.67;;;;;6.70;100807.00;;;;9872567;30;20196;-75
2022/11/28 22:39:48;;;;;;;27.37;14.17;;;;;6.70;100812.00;;;;9855958;30;20262;-75
2022/11/28 22:44:50;;;;;;;34.03;14.17;;;;;6.60;100810.00;;;;9856813;30;20295;-75
2022/11/28 22:49:52;;;;;;;29.70;13.47;;;;;6.60;100817.00;;;;9869764;30;20221;-75
2022/11/28 22:54:54;;;;;;;25.87;12.63;;;;;6.50;100823.00;;;;9835741;30;20204;-76
2022/11/28 22:59:56;;;;;;;30.97;13.53;;;;;6.40;100838.00;;;;9842900;30;20645;-75
2022/11/28 23:04:58;;;;;;;23.87;13.60;;;;;6.30;100844.00;;;;9830989;30;20213;-76
2022/11/28 23:10:00;;;;;;;28.10;13.90;;;;;6.20;100832.00;;;;9864443;30;20224;-75
2022/11/28 23:15:02;;;;;;;30.37;14.93;;;;;6.10;100845.00;;;;9853496;30;20213;-76
2022/11/28 23:20:05;;;;;;;25.03;12.63;;;;;6.00;100838.00;;;;9836758;30;20610;-76
2022/11/28 23:25:07;;;;;;;26.30;13.00;;;;;5.90;100850.00;;;;9852258;30;20196;-76
2022/11/28 23:30:10;;;;;;;30.80;13.20;;;;;5.90;100862.00;;;;9879140;30;20680;-76
2022/11/28 23:35:12;;;;;;;32.13;14.43;;;;;5.90;100851.00;;;;9857943;30;20205;-75
2022/11/28 23:40:13;;;;;;;28.07;13.53;;;;;5.80;100854.00;;;;9861081;30;20205;-75
2022/11/28 23:45:16;;;;;;;28.90;14.53;;;;;5.80;100851.00;;;;9869624;29;20189;-75
2022/11/28 23:50:18;;;;;;;25.03;14.03;;;;;5.70;100852.00;;;;9848325;30;20208;-75
2022/11/28 23:55:20;;;;;;;34.70;16.60;;;;;5.70;100861.00;;;;9862372;30;20207;-75
